sensor_id;sensor_type;location;lat;lon;timestamp;P1;durP1;ratioP1;P2;durP2;ratioP2
12218;SDS011;6172;42.646;23.344;2022-12-24T00:01:37;33.17;;;18.47;;
12218;SDS011;6172;42.646;23.344;2022-12-24T00:04:04;33.60;;;19.33;;
12218;SDS011;6172;42.646;23.344;2022-12-24T00:06:31;35.40;;;18.50;;
12218;SDS011;6172;42.646;23.344;2022-12-24T00:08:59;32.33;;;18.30;;
12218;SDS011;6172;42.646;23.344;2022-12-24T00:11:25;36.20;;;18.43;;
12218;SDS011;6172;42.646;23.344;2022-12-24T00:13:53;38.07;;;19.07;;
12218;SDS011;6172;42.646;23.344;2022-12-24T00:16:19;33.80;;;18.83;;
12218;SDS011;6172;42.646;23.344;2022-12-24T00:18:48;38.13;;;18.13;;
12218;SDS011;6172;42.646;23.344;2022-12-24T00:21:15;39.73;;;18.77;;
12218;SDS011;6172;42.646;23.344;2022-12-24T00:23:42;34.30;;;18.33;;
12218;SDS011;6172;42.646;23.344;2022-12-24T00:26:09;32.73;;;16.80;;
12218;SDS011;6172;42.646;23.344;2022-12-24T00:28:36;31.80;;;16.97;;
12218;SDS011;6172;42.646;23.344;2022-12-24T00:31:06;29.77;;;16.83;;
12218;SDS011;6172;42.646;23.344;2022-12-24T00:33:34;33.97;;;17.10;;
12218;SDS011;6172;42.646;23.344;2022-12-24T00:36:02;32.70;;;16.30;;
12218;SDS011;6172;42.646;23.344;2022-12-24T00:38:29;33.70;;;16.53;;
12218;SDS011;6172;42.646;23.344;2022-12-24T00:40:57;32.00;;;17.40;;
12218;SDS011;6172;42.646;23.344;2022-12-24T00:43:25;30.80;;;17.00;;
12218;SDS011;6172;42.646;23.344;2022-12-24T00:45:52;25.03;;;14.83;;
12218;SDS011;6172;42.646;23.344;2022-12-24T00:48:19;29.57;;;17.20;;
12218;SDS011;6172;42.646;23.344;2022-12-24T00:50:47;32.10;;;16.73;;
12218;SDS011;6172;42.646;23.344;2022-12-24T00:53:15;31.07;;;16.20;;
12218;SDS011;6172;42.646;23.344;2022-12-24T00:55:42;28.80;;;16.13;;
12218;SDS011;6172;42.646;23.344;2022-12-24T00:58:09;26.83;;;15.53;;
12218;SDS011;6172;42.646;23.344;2022-12-24T01:00:36;31.03;;;16.33;;
12218;SDS011;6172;42.646;23.344;2022-12-24T01:03:07;30.37;;;16.07;;
12218;SDS011;6172;42.646;23.344;2022-12-24T01:05:34;32.07;;;15.93;;
12218;SDS011;6172;42.646;23.344;2022-12-24T01:08:00;28.27;;;16.40;;
12218;SDS011;6172;42.646;23.344;2022-12-24T01:10:28;25.33;;;14.47;;
12218;SDS011;6172;42.646;23.344;2022-12-24T01:12:55;25.90;;;14.73;;
12218;SDS011;6172;42.646;23.344;2022-12-24T01:15:22;24.37;;;14.47;;
12218;SDS011;6172;42.646;23.344;2022-12-24T01:17:49;26.60;;;15.37;;
12218;SDS011;6172;42.646;23.344;2022-12-24T01:20:16;25.13;;;14.63;;
12218;SDS011;6172;42.646;23.344;2022-12-24T01:22:44;23.77;;;14.50;;
12218;SDS011;6172;42.646;23.344;2022-12-24T01:25:11;26.70;;;14.70;;
12218;SDS011;6172;42.646;23.344;2022-12-24T01:27:39;25.60;;;14.00;;
12218;SDS011;6172;42.646;23.344;2022-12-24T01:30:07;25.07;;;14.60;;
12218;SDS011;6172;42.646;23.344;2022-12-24T01:32:38;25.90;;;14.10;;
12218;SDS011;6172;42.646;23.344;2022-12-24T01:35:05;23.07;;;13.67;;
12218;SDS011;6172;42.646;23.344;2022-12-24T01:37:33;26.10;;;13.70;;
12218;SDS011;6172;42.646;23.344;2022-12-24T01:40:00;29.33;;;15.37;;
12218;SDS011;6172;42.646;23.344;2022-12-24T01:42:44;25.87;;;13.70;;
12218;SDS011;6172;42.646;23.344;2022-12-24T01:45:39;25.40;;;14.00;;
12218;SDS011;6172;42.646;23.344;2022-12-24T01:48:13;26.50;;;13.77;;
12218;SDS011;6172;42.646;23.344;2022-12-24T01:50:45;25.40;;;14.13;;
12218;SDS011;6172;42.646;23.344;2022-12-24T01:53:13;25.90;;;14.37;;
12218;SDS011;6172;42.646;23.344;2022-12-24T01:55:41;25.30;;;14.90;;
12218;SDS011;6172;42.646;23.344;2022-12-24T01:58:11;26.93;;;14.10;;
12218;SDS011;6172;42.646;23.344;2022-12-24T02:00:39;26.30;;;14.07;;
12218;SDS011;6172;42.646;23.344;2022-12-24T02:03:06;24.57;;;13.87;;
12218;SDS011;6172;42.646;23.344;2022-12-24T02:05:34;25.57;;;14.47;;
12218;SDS011;6172;42.646;23.344;2022-12-24T02:08:04;25.23;;;13.93;;
12218;SDS011;6172;42.646;23.344;2022-12-24T02:10:33;26.13;;;13.80;;
12218;SDS011;6172;42.646;23.344;2022-12-24T02:13:00;28.07;;;14.93;;
12218;SDS011;6172;42.646;23.344;2022-12-24T02:15:32;25.20;;;14.77;;
12218;SDS011;6172;42.646;23.344;2022-12-24T02:18:06;24.00;;;14.10;;
12218;SDS011;6172;42.646;23.344;2022-12-24T02:20:55;22.63;;;13.93;;
12218;SDS011;6172;42.646;23.344;2022-12-24T02:23:46;23.87;;;14.13;;
12218;SDS011;6172;42.646;23.344;2022-12-24T02:29:55;25.70;;;13.70;;
12218;SDS011;6172;42.646;23.344;2022-12-24T02:32:31;25.70;;;14.03;;
12218;SDS011;6172;42.646;23.344;2022-12-24T02:35:03;26.13;;;14.27;;
12218;SDS011;6172;42.646;23.344;2022-12-24T02:37:36;25.60;;;14.53;;
12218;SDS011;6172;42.646;23.344;2022-12-24T02:40:06;25.43;;;14.50;;
12218;SDS011;6172;42.646;23.344;2022-12-24T02:42:37;24.60;;;13.30;;
12218;SDS011;6172;42.646;23.344;2022-12-24T02:45:08;25.40;;;13.57;;
12218;SDS011;6172;42.646;23.344;2022-12-24T02:47:38;26.67;;;14.17;;
12218;SDS011;6172;42.646;23.344;2022-12-24T02:50:09;25.87;;;13.80;;
12218;SDS011;6172;42.646;23.344;2022-12-24T02:52:38;23.77;;;14.37;;
12218;SDS011;6172;42.646;23.344;2022-12-24T02:55:10;21.70;;;13.90;;
12218;SDS011;6172;42.646;23.344;2022-12-24T02:57:50;24.83;;;13.20;;
12218;SDS011;6172;42.646;23.344;2022-12-24T03:00:28;22.77;;;13.50;;
12218;SDS011;6172;42.646;23.344;2022-12-24T03:03:17;27.00;;;13.57;;
12218;SDS011;6172;42.646;23.344;2022-12-24T03:05:56;20.97;;;13.23;;
12218;SDS011;6172;42.646;23.344;2022-12-24T03:08:30;24.63;;;14.23;;
12218;SDS011;6172;42.646;23.344;2022-12-24T03:11:07;26.87;;;14.00;;
12218;SDS011;6172;42.646;23.344;2022-12-24T03:13:36;25.97;;;13.97;;
12218;SDS011;6172;42.646;23.344;2022-12-24T03:16:05;24.37;;;14.27;;
12218;SDS011;6172;42.646;23.344;2022-12-24T03:18:35;23.47;;;13.60;;
12218;SDS011;6172;42.646;23.344;2022-12-24T03:21:06;26.70;;;13.47;;
12218;SDS011;6172;42.646;23.344;2022-12-24T03:23:37;26.27;;;14.33;;
12218;SDS011;6172;42.646;23.344;2022-12-24T03:26:05;23.83;;;13.90;;
12218;SDS011;6172;42.646;23.344;2022-12-24T03:28:35;24.57;;;13.30;;
12218;SDS011;6172;42.646;23.344;2022-12-24T03:31:06;26.03;;;13.90;;
12218;SDS011;6172;42.646;23.344;2022-12-24T03:33:34;21.77;;;13.60;;
12218;SDS011;6172;42.646;23.344;2022-12-24T03:36:02;24.07;;;13.93;;
12218;SDS011;6172;42.646;23.344;2022-12-24T03:38:29;22.57;;;12.57;;
12218;SDS011;6172;42.646;23.344;2022-12-24T03:40:57;22.67;;;13.23;;
12218;SDS011;6172;42.646;23.344;2022-12-24T03:43:24;18.33;;;13.07;;
12218;SDS011;6172;42.646;23.344;2022-12-24T03:45:51;21.43;;;13.23;;
12218;SDS011;6172;42.646;23.344;2022-12-24T03:48:19;22.00;;;12.83;;
12218;SDS011;6172;42.646;23.344;2022-12-24T03:50:46;21.83;;;12.40;;
12218;SDS011;6172;42.646;23.344;2022-12-24T03:53:13;23.20;;;12.20;;
12218;SDS011;6172;42.646;23.344;2022-12-24T03:55:40;21.20;;;12.07;;
12218;SDS011;6172;42.646;23.344;2022-12-24T03:58:07;22.47;;;12.80;;
12218;SDS011;6172;42.646;23.344;2022-12-24T04:00:34;20.53;;;12.30;;
12218;SDS011;6172;42.646;23.344;2022-12-24T04:03:01;20.37;;;11.93;;
12218;SDS011;6172;42.646;23.344;2022-12-24T04:05:29;20.43;;;12.57;;
12218;SDS011;6172;42.646;23.344;2022-12-24T04:07:56;21.67;;;11.97;;
12218;SDS011;6172;42.646;23.344;2022-12-24T04:10:23;22.17;;;12.43;;
12218;SDS011;6172;42.646;23.344;2022-12-24T04:12:50;24.53;;;12.67;;
12218;SDS011;6172;42.646;23.344;2022-12-24T04:15:17;19.90;;;11.53;;
12218;SDS011;6172;42.646;23.344;2022-12-24T04:17:44;20.13;;;11.47;;
12218;SDS011;6172;42.646;23.344;2022-12-24T04:20:11;22.33;;;11.43;;
12218;SDS011;6172;42.646;23.344;2022-12-24T04:22:39;19.40;;;11.47;;
12218;SDS011;6172;42.646;23.344;2022-12-24T04:25:07;17.33;;;10.83;;
12218;SDS011;6172;42.646;23.344;2022-12-24T04:27:35;17.77;;;10.30;;
12218;SDS011;6172;42.646;23.344;2022-12-24T04:30:02;19.73;;;11.47;;
12218;SDS011;6172;42.646;23.344;2022-12-24T04:32:29;18.27;;;9.73;;
12218;SDS011;6172;42.646;23.344;2022-12-24T04:34:56;15.80;;;11.03;;
12218;SDS011;6172;42.646;23.344;2022-12-24T04:37:24;18.83;;;9.93;;
12218;SDS011;6172;42.646;23.344;2022-12-24T04:39:52;18.90;;;10.50;;
12218;SDS011;6172;42.646;23.344;2022-12-24T04:42:19;17.90;;;10.77;;
12218;SDS011;6172;42.646;23.344;2022-12-24T04:44:46;17.37;;;11.33;;
12218;SDS011;6172;42.646;23.344;2022-12-24T04:47:12;18.13;;;10.80;;
12218;SDS011;6172;42.646;23.344;2022-12-24T04:49:40;18.70;;;11.43;;
12218;SDS011;6172;42.646;23.344;2022-12-24T04:52:06;17.10;;;11.13;;
12218;SDS011;6172;42.646;23.344;2022-12-24T04:54:33;21.47;;;11.97;;
12218;SDS011;6172;42.646;23.344;2022-12-24T04:57:02;21.47;;;12.13;;
12218;SDS011;6172;42.646;23.344;2022-12-24T04:59:29;16.67;;;10.83;;
12218;SDS011;6172;42.646;23.344;2022-12-24T05:01:56;17.73;;;11.97;;
12218;SDS011;6172;42.646;23.344;2022-12-24T05:04:22;19.80;;;12.20;;
12218;SDS011;6172;42.646;23.344;2022-12-24T05:06:49;17.97;;;11.97;;
12218;SDS011;6172;42.646;23.344;2022-12-24T05:09:16;18.30;;;11.53;;
12218;SDS011;6172;42.646;23.344;2022-12-24T05:11:43;21.13;;;11.93;;
12218;SDS011;6172;42.646;23.344;2022-12-24T05:14:12;19.50;;;12.17;;
12218;SDS011;6172;42.646;23.344;2022-12-24T05:16:39;22.03;;;12.30;;
12218;SDS011;6172;42.646;23.344;2022-12-24T05:19:05;19.00;;;11.30;;
12218;SDS011;6172;42.646;23.344;2022-12-24T05:21:32;20.73;;;9.80;;
12218;SDS011;6172;42.646;23.344;2022-12-24T05:23:59;13.50;;;8.77;;
12218;SDS011;6172;42.646;23.344;2022-12-24T05:26:46;19.27;;;12.37;;
12218;SDS011;6172;42.646;23.344;2022-12-24T05:29:16;21.03;;;11.00;;
12218;SDS011;6172;42.646;23.344;2022-12-24T05:31:44;19.87;;;10.60;;
12218;SDS011;6172;42.646;23.344;2022-12-24T05:34:11;19.53;;;11.53;;
12218;SDS011;6172;42.646;23.344;2022-12-24T05:36:40;21.40;;;12.53;;
12218;SDS011;6172;42.646;23.344;2022-12-24T05:39:08;19.17;;;10.93;;
12218;SDS011;6172;42.646;23.344;2022-12-24T05:41:39;19.33;;;10.97;;
12218;SDS011;6172;42.646;23.344;2022-12-24T05:44:06;18.53;;;10.93;;
12218;SDS011;6172;42.646;23.344;2022-12-24T05:46:35;20.23;;;11.60;;
12218;SDS011;6172;42.646;23.344;2022-12-24T05:49:02;17.10;;;11.27;;
12218;SDS011;6172;42.646;23.344;2022-12-24T05:51:29;22.07;;;12.27;;
12218;SDS011;6172;42.646;23.344;2022-12-24T05:53:56;19.00;;;11.40;;
12218;SDS011;6172;42.646;23.344;2022-12-24T05:56:23;20.33;;;11.97;;
12218;SDS011;6172;42.646;23.344;2022-12-24T05:58:51;23.83;;;11.97;;
12218;SDS011;6172;42.646;23.344;2022-12-24T06:01:19;20.53;;;11.60;;
12218;SDS011;6172;42.646;23.344;2022-12-24T06:03:48;19.50;;;11.13;;
12218;SDS011;6172;42.646;23.344;2022-12-24T06:06:16;20.40;;;12.33;;
12218;SDS011;6172;42.646;23.344;2022-12-24T06:08:45;20.50;;;12.43;;
12218;SDS011;6172;42.646;23.344;2022-12-24T06:11:13;22.37;;;11.90;;
12218;SDS011;6172;42.646;23.344;2022-12-24T06:13:41;18.87;;;10.63;;
12218;SDS011;6172;42.646;23.344;2022-12-24T06:16:09;20.03;;;11.70;;
12218;SDS011;6172;42.646;23.344;2022-12-24T06:18:38;21.27;;;12.13;;
12218;SDS011;6172;42.646;23.344;2022-12-24T06:21:06;18.43;;;12.50;;
12218;SDS011;6172;42.646;23.344;2022-12-24T06:23:35;20.10;;;12.27;;
12218;SDS011;6172;42.646;23.344;2022-12-24T06:26:04;22.07;;;12.93;;
12218;SDS011;6172;42.646;23.344;2022-12-24T06:28:32;22.17;;;12.70;;
12218;SDS011;6172;42.646;23.344;2022-12-24T06:31:01;20.27;;;12.27;;
12218;SDS011;6172;42.646;23.344;2022-12-24T06:33:29;23.37;;;13.07;;
12218;SDS011;6172;42.646;23.344;2022-12-24T06:35:57;19.90;;;11.70;;
12218;SDS011;6172;42.646;23.344;2022-12-24T06:38:25;18.23;;;11.90;;
12218;SDS011;6172;42.646;23.344;2022-12-24T06:40:52;20.97;;;11.83;;
12218;SDS011;6172;42.646;23.344;2022-12-24T06:43:20;16.57;;;11.27;;
12218;SDS011;6172;42.646;23.344;2022-12-24T06:45:47;21.10;;;10.90;;
12218;SDS011;6172;42.646;23.344;2022-12-24T06:48:14;20.00;;;11.53;;
12218;SDS011;6172;42.646;23.344;2022-12-24T06:50:42;21.70;;;12.60;;
12218;SDS011;6172;42.646;23.344;2022-12-24T06:53:09;24.60;;;14.77;;
12218;SDS011;6172;42.646;23.344;2022-12-24T06:55:38;23.20;;;14.57;;
12218;SDS011;6172;42.646;23.344;2022-12-24T06:58:05;23.77;;;15.07;;
12218;SDS011;6172;42.646;23.344;2022-12-24T07:00:32;29.93;;;16.10;;
12218;SDS011;6172;42.646;23.344;2022-12-24T07:02:59;25.93;;;15.57;;
12218;SDS011;6172;42.646;23.344;2022-12-24T07:05:26;22.50;;;14.13;;
12218;SDS011;6172;42.646;23.344;2022-12-24T07:07:53;21.83;;;13.30;;
12218;SDS011;6172;42.646;23.344;2022-12-24T07:10:20;26.23;;;14.97;;
12218;SDS011;6172;42.646;23.344;2022-12-24T07:12:49;19.83;;;13.30;;
12218;SDS011;6172;42.646;23.344;2022-12-24T07:15:16;22.30;;;14.60;;
12218;SDS011;6172;42.646;23.344;2022-12-24T07:17:43;25.37;;;17.90;;
12218;SDS011;6172;42.646;23.344;2022-12-24T07:20:11;22.00;;;14.60;;
12218;SDS011;6172;42.646;23.344;2022-12-24T07:22:39;25.53;;;14.63;;
12218;SDS011;6172;42.646;23.344;2022-12-24T07:25:07;20.40;;;14.27;;
12218;SDS011;6172;42.646;23.344;2022-12-24T07:27:34;19.47;;;13.20;;
12218;SDS011;6172;42.646;23.344;2022-12-24T07:30:03;19.47;;;13.03;;
12218;SDS011;6172;42.646;23.344;2022-12-24T07:32:31;21.70;;;14.53;;
12218;SDS011;6172;42.646;23.344;2022-12-24T07:34:58;20.53;;;13.30;;
12218;SDS011;6172;42.646;23.344;2022-12-24T07:37:25;20.27;;;13.03;;
12218;SDS011;6172;42.646;23.344;2022-12-24T07:39:52;27.70;;;17.43;;
12218;SDS011;6172;42.646;23.344;2022-12-24T07:42:19;21.63;;;14.20;;
12218;SDS011;6172;42.646;23.344;2022-12-24T07:44:45;20.67;;;12.30;;
12218;SDS011;6172;42.646;23.344;2022-12-24T07:47:14;19.77;;;12.53;;
12218;SDS011;6172;42.646;23.344;2022-12-24T07:49:41;20.27;;;13.03;;
12218;SDS011;6172;42.646;23.344;2022-12-24T07:52:08;21.07;;;12.10;;
12218;SDS011;6172;42.646;23.344;2022-12-24T07:54:35;18.60;;;10.63;;
12218;SDS011;6172;42.646;23.344;2022-12-24T07:57:02;16.77;;;10.23;;
12218;SDS011;6172;42.646;23.344;2022-12-24T07:59:30;12.97;;;8.47;;
12218;SDS011;6172;42.646;23.344;2022-12-24T08:01:57;14.87;;;9.20;;
12218;SDS011;6172;42.646;23.344;2022-12-24T08:04:25;15.17;;;9.20;;
12218;SDS011;6172;42.646;23.344;2022-12-24T08:06:52;10.93;;;8.20;;
12218;SDS011;6172;42.646;23.344;2022-12-24T08:09:19;12.63;;;8.40;;
12218;SDS011;6172;42.646;23.344;2022-12-24T08:11:46;13.13;;;7.40;;
12218;SDS011;6172;42.646;23.344;2022-12-24T08:14:13;14.03;;;8.03;;
12218;SDS011;6172;42.646;23.344;2022-12-24T08:16:40;11.60;;;7.63;;
12218;SDS011;6172;42.646;23.344;2022-12-24T08:19:07;12.20;;;7.60;;
12218;SDS011;6172;42.646;23.344;2022-12-24T08:21:35;15.83;;;8.17;;
12218;SDS011;6172;42.646;23.344;2022-12-24T08:24:02;13.50;;;7.87;;
12218;SDS011;6172;42.646;23.344;2022-12-24T08:26:30;15.23;;;7.83;;
12218;SDS011;6172;42.646;23.344;2022-12-24T08:28:57;10.27;;;7.50;;
12218;SDS011;6172;42.646;23.344;2022-12-24T08:31:24;11.00;;;7.13;;
12218;SDS011;6172;42.646;23.344;2022-12-24T08:33:51;10.87;;;7.27;;
12218;SDS011;6172;42.646;23.344;2022-12-24T08:36:18;10.67;;;6.30;;
12218;SDS011;6172;42.646;23.344;2022-12-24T08:38:47;11.97;;;7.87;;
12218;SDS011;6172;42.646;23.344;2022-12-24T08:41:14;10.23;;;6.80;;
12218;SDS011;6172;42.646;23.344;2022-12-24T08:43:41;16.03;;;8.57;;
12218;SDS011;6172;42.646;23.344;2022-12-24T08:46:08;16.67;;;8.27;;
12218;SDS011;6172;42.646;23.344;2022-12-24T08:48:35;15.17;;;9.13;;
12218;SDS011;6172;42.646;23.344;2022-12-24T08:51:04;13.67;;;8.97;;
12218;SDS011;6172;42.646;23.344;2022-12-24T08:53:32;10.73;;;8.27;;
12218;SDS011;6172;42.646;23.344;2022-12-24T08:56:02;12.33;;;8.20;;
12218;SDS011;6172;42.646;23.344;2022-12-24T08:58:30;15.40;;;8.17;;
12218;SDS011;6172;42.646;23.344;2022-12-24T09:00:57;12.57;;;8.60;;
12218;SDS011;6172;42.646;23.344;2022-12-24T09:03:24;12.67;;;8.77;;
12218;SDS011;6172;42.646;23.344;2022-12-24T09:05:51;14.13;;;8.77;;
12218;SDS011;6172;42.646;23.344;2022-12-24T09:08:18;13.60;;;9.40;;
12218;SDS011;6172;42.646;23.344;2022-12-24T09:10:46;15.17;;;8.93;;
12218;SDS011;6172;42.646;23.344;2022-12-24T09:13:14;16.33;;;9.80;;
12218;SDS011;6172;42.646;23.344;2022-12-24T09:15:41;17.30;;;9.97;;
12218;SDS011;6172;42.646;23.344;2022-12-24T09:18:07;17.37;;;11.03;;
12218;SDS011;6172;42.646;23.344;2022-12-24T09:20:34;17.93;;;10.83;;
12218;SDS011;6172;42.646;23.344;2022-12-24T09:23:01;19.60;;;11.27;;
12218;SDS011;6172;42.646;23.344;2022-12-24T09:25:28;16.53;;;10.50;;
12218;SDS011;6172;42.646;23.344;2022-12-24T09:27:55;20.00;;;9.83;;
12218;SDS011;6172;42.646;23.344;2022-12-24T09:30:24;19.33;;;11.03;;
12218;SDS011;6172;42.646;23.344;2022-12-24T09:32:50;19.40;;;12.43;;
12218;SDS011;6172;42.646;23.344;2022-12-24T09:35:17;21.80;;;13.83;;
12218;SDS011;6172;42.646;23.344;2022-12-24T09:37:45;20.67;;;13.30;;
12218;SDS011;6172;42.646;23.344;2022-12-24T09:40:15;25.63;;;13.07;;
12218;SDS011;6172;42.646;23.344;2022-12-24T09:42:50;21.90;;;13.17;;
12218;SDS011;6172;42.646;23.344;2022-12-24T09:45:21;26.10;;;12.97;;
12218;SDS011;6172;42.646;23.344;2022-12-24T09:47:54;18.67;;;12.80;;
12218;SDS011;6172;42.646;23.344;2022-12-24T09:50:29;20.73;;;12.80;;
12218;SDS011;6172;42.646;23.344;2022-12-24T09:53:04;20.97;;;13.50;;
12218;SDS011;6172;42.646;23.344;2022-12-24T09:55:40;30.50;;;17.33;;
12218;SDS011;6172;42.646;23.344;2022-12-24T09:58:11;32.13;;;19.70;;
12218;SDS011;6172;42.646;23.344;2022-12-24T10:00:47;34.57;;;19.70;;
12218;SDS011;6172;42.646;23.344;2022-12-24T10:03:15;33.73;;;21.97;;
12218;SDS011;6172;42.646;23.344;2022-12-24T10:05:44;36.77;;;21.63;;
12218;SDS011;6172;42.646;23.344;2022-12-24T10:08:22;30.57;;;20.50;;
12218;SDS011;6172;42.646;23.344;2022-12-24T10:10:57;29.63;;;19.57;;
12218;SDS011;6172;42.646;23.344;2022-12-24T10:13:35;37.67;;;21.20;;
12218;SDS011;6172;42.646;23.344;2022-12-24T10:16:18;40.03;;;24.60;;
12218;SDS011;6172;42.646;23.344;2022-12-24T10:18:54;39.73;;;25.77;;
12218;SDS011;6172;42.646;23.344;2022-12-24T10:21:27;48.87;;;27.43;;
12218;SDS011;6172;42.646;23.344;2022-12-24T10:24:09;62.63;;;37.57;;
12218;SDS011;6172;42.646;23.344;2022-12-24T10:26:43;72.20;;;42.93;;
12218;SDS011;6172;42.646;23.344;2022-12-24T10:29:12;75.83;;;42.13;;
12218;SDS011;6172;42.646;23.344;2022-12-24T10:31:44;71.10;;;41.63;;
12218;SDS011;6172;42.646;23.344;2022-12-24T10:34:21;76.00;;;42.30;;
12218;SDS011;6172;42.646;23.344;2022-12-24T10:36:49;68.87;;;39.60;;
12218;SDS011;6172;42.646;23.344;2022-12-24T10:39:17;70.57;;;39.00;;
12218;SDS011;6172;42.646;23.344;2022-12-24T10:41:46;70.30;;;37.20;;
12218;SDS011;6172;42.646;23.344;2022-12-24T10:44:15;58.57;;;34.70;;
12218;SDS011;6172;42.646;23.344;2022-12-24T10:46:46;56.70;;;32.50;;
12218;SDS011;6172;42.646;23.344;2022-12-24T10:49:14;63.67;;;32.47;;
12218;SDS011;6172;42.646;23.344;2022-12-24T10:51:44;59.07;;;31.77;;
12218;SDS011;6172;42.646;23.344;2022-12-24T10:54:16;47.73;;;29.87;;
12218;SDS011;6172;42.646;23.344;2022-12-24T10:56:45;55.77;;;30.77;;
12218;SDS011;6172;42.646;23.344;2022-12-24T10:59:24;52.33;;;31.47;;
12218;SDS011;6172;42.646;23.344;2022-12-24T11:01:54;51.63;;;29.70;;
12218;SDS011;6172;42.646;23.344;2022-12-24T11:04:22;50.00;;;30.67;;
12218;SDS011;6172;42.646;23.344;2022-12-24T11:06:51;47.57;;;29.07;;
12218;SDS011;6172;42.646;23.344;2022-12-24T11:09:20;53.63;;;31.43;;
12218;SDS011;6172;42.646;23.344;2022-12-24T11:11:48;50.87;;;30.13;;
12218;SDS011;6172;42.646;23.344;2022-12-24T11:14:16;47.17;;;29.80;;
12218;SDS011;6172;42.646;23.344;2022-12-24T11:16:49;52.13;;;30.50;;
12218;SDS011;6172;42.646;23.344;2022-12-24T11:19:23;50.30;;;28.33;;
12218;SDS011;6172;42.646;23.344;2022-12-24T11:21:57;51.73;;;29.30;;
12218;SDS011;6172;42.646;23.344;2022-12-24T11:24:27;47.30;;;27.83;;
12218;SDS011;6172;42.646;23.344;2022-12-24T11:27:21;49.60;;;29.90;;
12218;SDS011;6172;42.646;23.344;2022-12-24T11:29:58;47.57;;;28.87;;
12218;SDS011;6172;42.646;23.344;2022-12-24T11:32:44;50.83;;;29.13;;
12218;SDS011;6172;42.646;23.344;2022-12-24T11:35:15;45.83;;;28.30;;
12218;SDS011;6172;42.646;23.344;2022-12-24T11:37:43;49.67;;;29.03;;
12218;SDS011;6172;42.646;23.344;2022-12-24T11:40:17;49.17;;;29.40;;
12218;SDS011;6172;42.646;23.344;2022-12-24T11:42:48;53.67;;;30.13;;
12218;SDS011;6172;42.646;23.344;2022-12-24T11:45:19;48.50;;;29.00;;
12218;SDS011;6172;42.646;23.344;2022-12-24T11:47:49;53.77;;;30.03;;
12218;SDS011;6172;42.646;23.344;2022-12-24T11:50:23;49.30;;;30.13;;
12218;SDS011;6172;42.646;23.344;2022-12-24T11:52:54;48.47;;;30.77;;
12218;SDS011;6172;42.646;23.344;2022-12-24T11:55:32;50.73;;;29.50;;
12218;SDS011;6172;42.646;23.344;2022-12-24T11:58:10;43.23;;;25.70;;
12218;SDS011;6172;42.646;23.344;2022-12-24T12:00:43;40.50;;;27.13;;
12218;SDS011;6172;42.646;23.344;2022-12-24T12:03:16;43.10;;;26.30;;
12218;SDS011;6172;42.646;23.344;2022-12-24T12:05:53;42.77;;;26.23;;
12218;SDS011;6172;42.646;23.344;2022-12-24T12:08:21;36.97;;;21.87;;
12218;SDS011;6172;42.646;23.344;2022-12-24T12:10:49;36.10;;;20.83;;
12218;SDS011;6172;42.646;23.344;2022-12-24T12:13:19;38.57;;;24.57;;
12218;SDS011;6172;42.646;23.344;2022-12-24T12:15:54;39.80;;;25.83;;
12218;SDS011;6172;42.646;23.344;2022-12-24T12:18:33;48.67;;;27.87;;
12218;SDS011;6172;42.646;23.344;2022-12-24T12:21:04;44.93;;;28.00;;
12218;SDS011;6172;42.646;23.344;2022-12-24T12:23:35;40.83;;;26.07;;
12218;SDS011;6172;42.646;23.344;2022-12-24T12:26:07;48.80;;;28.30;;
12218;SDS011;6172;42.646;23.344;2022-12-24T12:28:42;49.60;;;27.70;;
12218;SDS011;6172;42.646;23.344;2022-12-24T12:31:14;44.83;;;26.60;;
12218;SDS011;6172;42.646;23.344;2022-12-24T12:33:47;39.47;;;26.90;;
12218;SDS011;6172;42.646;23.344;2022-12-24T12:36:22;43.80;;;26.60;;
12218;SDS011;6172;42.646;23.344;2022-12-24T12:38:54;42.60;;;26.80;;
12218;SDS011;6172;42.646;23.344;2022-12-24T12:41:23;44.93;;;26.60;;
12218;SDS011;6172;42.646;23.344;2022-12-24T12:44:04;45.10;;;27.50;;
12218;SDS011;6172;42.646;23.344;2022-12-24T12:46:51;45.93;;;26.73;;
12218;SDS011;6172;42.646;23.344;2022-12-24T12:49:34;47.03;;;27.63;;
12218;SDS011;6172;42.646;23.344;2022-12-24T12:52:13;46.43;;;26.53;;
12218;SDS011;6172;42.646;23.344;2022-12-24T12:54:50;40.73;;;26.07;;
12218;SDS011;6172;42.646;23.344;2022-12-24T12:57:27;49.10;;;26.93;;
12218;SDS011;6172;42.646;23.344;2022-12-24T12:59:59;44.50;;;25.87;;
12218;SDS011;6172;42.646;23.344;2022-12-24T13:05:32;40.20;;;26.07;;
12218;SDS011;6172;42.646;23.344;2022-12-24T13:08:20;39.00;;;25.57;;
12218;SDS011;6172;42.646;23.344;2022-12-24T13:11:04;40.57;;;26.43;;
12218;SDS011;6172;42.646;23.344;2022-12-24T13:20:00;44.70;;;27.03;;
12218;SDS011;6172;42.646;23.344;2022-12-24T13:22:48;45.07;;;26.43;;
12218;SDS011;6172;42.646;23.344;2022-12-24T13:25:22;42.37;;;26.87;;
12218;SDS011;6172;42.646;23.344;2022-12-24T13:27:52;44.67;;;28.37;;
12218;SDS011;6172;42.646;23.344;2022-12-24T13:30:32;44.33;;;26.20;;
12218;SDS011;6172;42.646;23.344;2022-12-24T13:33:02;38.90;;;24.93;;
12218;SDS011;6172;42.646;23.344;2022-12-24T13:35:35;39.07;;;25.07;;
12218;SDS011;6172;42.646;23.344;2022-12-24T13:44:30;37.87;;;24.47;;
12218;SDS011;6172;42.646;23.344;2022-12-24T13:49:47;38.87;;;23.10;;
12218;SDS011;6172;42.646;23.344;2022-12-24T13:52:26;42.20;;;24.73;;
12218;SDS011;6172;42.646;23.344;2022-12-24T13:55:00;39.87;;;23.80;;
12218;SDS011;6172;42.646;23.344;2022-12-24T13:57:41;38.30;;;24.27;;
12218;SDS011;6172;42.646;23.344;2022-12-24T14:00:23;42.27;;;25.63;;
12218;SDS011;6172;42.646;23.344;2022-12-24T14:02:55;44.83;;;24.07;;
12218;SDS011;6172;42.646;23.344;2022-12-24T14:05:26;35.30;;;23.67;;
12218;SDS011;6172;42.646;23.344;2022-12-24T14:07:58;43.30;;;24.50;;
12218;SDS011;6172;42.646;23.344;2022-12-24T14:10:27;43.60;;;25.10;;
12218;SDS011;6172;42.646;23.344;2022-12-24T14:12:57;38.70;;;24.90;;
12218;SDS011;6172;42.646;23.344;2022-12-24T14:18:36;41.03;;;24.67;;
12218;SDS011;6172;42.646;23.344;2022-12-24T14:21:05;40.90;;;26.90;;
12218;SDS011;6172;42.646;23.344;2022-12-24T14:23:40;42.57;;;25.60;;
12218;SDS011;6172;42.646;23.344;2022-12-24T14:26:13;38.83;;;24.70;;
12218;SDS011;6172;42.646;23.344;2022-12-24T14:28:43;43.70;;;26.80;;
12218;SDS011;6172;42.646;23.344;2022-12-24T14:31:16;42.40;;;26.93;;
12218;SDS011;6172;42.646;23.344;2022-12-24T14:33:46;43.20;;;27.00;;
12218;SDS011;6172;42.646;23.344;2022-12-24T14:36:13;42.83;;;27.27;;
12218;SDS011;6172;42.646;23.344;2022-12-24T14:38:44;47.50;;;29.63;;
12218;SDS011;6172;42.646;23.344;2022-12-24T14:41:23;48.57;;;29.93;;
12218;SDS011;6172;42.646;23.344;2022-12-24T14:44:01;62.70;;;34.43;;
12218;SDS011;6172;42.646;23.344;2022-12-24T14:46:37;53.50;;;34.23;;
12218;SDS011;6172;42.646;23.344;2022-12-24T14:49:12;52.47;;;33.47;;
12218;SDS011;6172;42.646;23.344;2022-12-24T14:51:51;56.17;;;32.07;;
12218;SDS011;6172;42.646;23.344;2022-12-24T14:54:33;55.27;;;33.87;;
12218;SDS011;6172;42.646;23.344;2022-12-24T14:57:10;57.93;;;34.60;;
12218;SDS011;6172;42.646;23.344;2022-12-24T14:59:46;54.63;;;34.40;;
12218;SDS011;6172;42.646;23.344;2022-12-24T15:05:13;53.80;;;32.67;;
12218;SDS011;6172;42.646;23.344;2022-12-24T15:07:44;54.83;;;33.57;;
12218;SDS011;6172;42.646;23.344;2022-12-24T15:10:20;46.63;;;29.50;;